Time;durP1;ratioP1;P1;durP2;ratioP2;P2;SDS_P1;SDS_P2;PMS_P1;PMS_P2;Temp;Humidity;BMP_temperature;BMP_pressure;BME280_temperature;BME280_humidity;BME280_pressure;Samples;Min_cycle;Max_cycle;Signal;HPM_P1;HPM_P2
2021/03/21 00:01:54;;;;;;;13.55;7.55;;;0.50;99.90;;;;;;5008377;28;20037;-74
2021/03/21 00:04:20;;;;;;;14.75;7.65;;;0.50;99.90;;;;;;5008079;28;20400;-74
2021/03/21 00:06:45;;;;;;;24.02;12.15;;;0.50;99.90;;;;;;5007839;28;20026;-74
2021/03/21 00:09:12;;;;;;;20.48;10.80;;;0.40;99.90;;;;;;5008075;28;20030;-75
2021/03/21 00:11:38;;;;;;;26.35;13.52;;;0.40;99.90;;;;;;5007888;28;20025;-75
2021/03/21 00:14:04;;;;;;;28.10;13.80;;;0.40;99.90;;;;;;5007544;28;20160;-74
2021/03/21 00:16:31;;;;;;;25.25;13.45;;;0.40;99.90;;;;;;5009202;28;20438;-75
2021/03/21 00:18:57;;;;;;;26.88;13.70;;;0.40;99.90;;;;;;5001914;28;20052;-75
2021/03/21 00:21:24;;;;;;;25.92;12.68;;;0.40;99.90;;;;;;5009223;28;20030;-74
2021/03/21 00:23:49;;;;;;;25.80;13.00;;;0.40;99.90;;;;;;5007043;28;20124;-74
2021/03/21 00:26:15;;;;;;;23.42;12.57;;;0.30;99.90;;;;;;5008970;28;20108;-75
2021/03/21 00:28:41;;;;;;;24.67;12.27;;;0.30;99.90;;;;;;5005793;28;20041;-74
2021/03/21 00:31:10;;;;;;;30.63;14.60;;;0.30;99.90;;;;;;5009471;28;20048;-75
2021/03/21 00:33:37;;;;;;;31.88;14.70;;;0.30;99.90;;;;;;5007614;28;20072;-74
2021/03/21 00:36:05;;;;;;;29.70;14.45;;;0.30;99.90;;;;;;5009418;28;20061;-74
2021/03/21 00:38:37;;;;;;;37.55;17.02;;;0.30;99.90;;;;;;5005350;28;20038;-75
2021/03/21 00:41:04;;;;;;;;;;;0.30;99.90;;;;;;5005787;28;20104;-74
2021/03/21 00:43:30;;;;;;;44.72;20.13;;;0.30;99.90;;;;;;5006448;28;20302;-74
2021/03/21 00:45:56;;;;;;;38.80;18.08;;;0.30;99.90;;;;;;5008259;28;20076;-76
2021/03/21 00:48:31;;;;;;;33.10;16.02;;;0.30;99.90;;;;;;5006411;28;20037;-74
2021/03/21 00:50:58;;;;;;;28.30;13.55;;;0.10;99.90;;;;;;5008588;28;20037;-77
2021/03/21 00:53:24;;;;;;;24.50;11.35;;;0.10;99.90;;;;;;5007526;28;20494;-74
2021/03/21 00:55:50;;;;;;;26.63;11.65;;;0.20;99.90;;;;;;5007418;28;20113;-74
2021/03/21 00:58:17;;;;;;;27.58;12.00;;;0.20;99.90;;;;;;5008593;28;20096;-74
2021/03/21 01:00:49;;;;;;;26.45;11.50;;;0.10;99.90;;;;;;5007169;28;20080;-74
2021/03/21 01:03:16;;;;;;;26.13;11.38;;;0.10;99.90;;;;;;5008417;28;20069;-75
2021/03/21 01:05:45;;;;;;;27.05;11.68;;;0.00;99.90;;;;;;5006951;28;20038;-74
2021/03/21 01:08:22;;;;;;;21.02;9.60;;;0.00;99.90;;;;;;5008372;28;20040;-74
2021/03/21 01:10:52;;;;;;;20.17;9.90;;;-0.10;99.90;;;;;;5005187;28;20353;-74
2021/03/21 01:13:18;;;;;;;20.08;10.20;;;-0.10;99.90;;;;;;5006929;28;20036;-76
2021/03/21 01:15:44;;;;;;;22.23;10.82;;;-0.10;99.90;;;;;;5006509;28;20363;-72
2021/03/21 01:18:17;;;;;;;21.17;10.05;;;0.00;99.90;;;;;;5008065;28;20497;-72
2021/03/21 01:20:43;;;;;;;22.20;11.07;;;0.00;99.90;;;;;;5006585;28;20036;-74
2021/03/21 01:23:08;;;;;;;19.92;9.73;;;0.00;99.90;;;;;;5008239;28;20803;-74
2021/03/21 01:25:34;;;;;;;18.83;10.00;;;0.00;99.90;;;;;;5006228;28;20034;-75
2021/03/21 01:27:59;;;;;;;27.23;12.85;;;0.00;99.90;;;;;;5008457;28;20025;-74
2021/03/21 01:30:27;;;;;;;25.60;13.55;;;0.00;99.90;;;;;;5004732;28;20038;-74
2021/03/21 01:32:53;;;;;;;22.80;10.77;;;0.00;99.90;;;;;;5008381;28;20034;-74
2021/03/21 01:35:20;;;;;;;23.90;10.77;;;-0.10;99.90;;;;;;5005849;28;20041;-74
2021/03/21 01:37:46;;;;;;;20.73;10.85;;;-0.10;99.90;;;;;;5007503;28;20403;-74
2021/03/21 01:40:14;;;;;;;22.75;9.90;;;-0.10;99.90;;;;;;5005800;28;20041;-74
2021/03/21 01:42:42;;;;;;;18.20;9.43;;;-0.10;99.90;;;;;;5006464;28;20033;-76
2021/03/21 01:45:33;;;;;;;21.63;10.07;;;-0.20;99.90;;;;;;5007039;28;20329;-75
2021/03/21 01:48:03;;;;;;;20.17;9.35;;;-0.20;99.90;;;;;;5007695;28;20138;-77
2021/03/21 01:50:47;;;;;;;17.50;8.63;;;-0.10;99.90;;;;;;5006345;28;20072;-74
2021/03/21 01:53:16;;;;;;;17.77;9.00;;;-0.10;99.90;;;;;;5007039;28;20069;-77
2021/03/21 01:55:42;;;;;;;16.02;7.85;;;-0.20;99.90;;;;;;5005675;28;20356;-74
2021/03/21 01:58:08;;;;;;;17.42;8.88;;;-0.20;99.90;;;;;;5005926;28;20452;-74
2021/03/21 02:00:37;;;;;;;17.60;8.55;;;-0.20;99.90;;;;;;5005883;28;20036;-74
2021/03/21 02:03:04;;;;;;;15.75;8.30;;;-0.20;99.90;;;;;;5007628;28;20079;-74
2021/03/21 02:05:30;;;;;;;12.80;6.65;;;-0.20;99.90;;;;;;5005411;28;20040;-74
2021/03/21 02:08:20;;;;;;;12.10;6.28;;;-0.20;99.90;;;;;;5007727;28;20041;-74
2021/03/21 02:11:23;;;;;;;10.13;5.85;;;-0.20;99.90;;;;;;5004240;28;20357;-74
2021/03/21 02:14:02;;;;;;;12.55;6.45;;;-0.30;99.90;;;;;;5007992;28;20038;-74
2021/03/21 02:16:44;;;;;;;13.82;7.55;;;-0.30;99.90;;;;;;5005315;28;20184;-74
2021/03/21 02:19:21;;;;;;;13.93;7.40;;;-0.30;99.90;;;;;;5005685;28;20530;-75
2021/03/21 02:21:56;;;;;;;14.18;7.60;;;-0.40;99.90;;;;;;5005678;28;20034;-74
2021/03/21 02:24:37;;;;;;;12.40;7.15;;;-0.40;99.90;;;;;;5005650;28;20459;-74
2021/03/21 02:27:09;;;;;;;11.02;5.93;;;-0.40;99.90;;;;;;5005444;28;20026;-74
2021/03/21 02:29:38;;;;;;;9.57;5.13;;;-0.40;99.90;;;;;;5007272;28;20413;-75
2021/03/21 02:32:25;;;;;;;11.35;6.03;;;-0.30;99.90;;;;;;5003910;28;20045;-74
2021/03/21 02:35:08;;;;;;;12.93;5.90;;;-0.30;99.90;;;;;;5005964;28;20053;-77
2021/03/21 02:37:46;;;;;;;11.27;6.10;;;-0.40;99.90;;;;;;5005230;28;20488;-74
2021/03/21 02:40:27;;;;;;;13.65;6.63;;;-0.30;99.90;;;;;;5006711;28;20456;-75
2021/03/21 02:43:24;;;;;;;13.00;6.63;;;-0.30;99.90;;;;;;5004452;28;20479;-75
2021/03/21 02:45:53;;;;;;;12.68;6.68;;;-0.30;99.90;;;;;;5005144;28;20125;-74
2021/03/21 02:48:30;;;;;;;13.05;7.75;;;-0.30;99.90;;;;;;5005857;28;20121;-74
2021/03/21 02:51:04;;;;;;;12.60;6.97;;;-0.40;99.90;;;;;;5005129;28;20685;-75
2021/03/21 02:53:59;;;;;;;11.70;6.15;;;-0.40;99.90;;;;;;5004892;28;20030;-75
2021/03/21 02:56:28;;;;;;;14.55;7.95;;;-0.40;99.90;;;;;;4990375;28;20812;-75
2021/03/21 02:59:10;;;;;;;14.27;7.38;;;-0.40;99.90;;;;;;5021207;28;20042;-75
2021/03/21 03:01:45;;;;;;;17.15;8.45;;;-0.40;99.90;;;;;;5004710;28;20125;-75
2021/03/21 03:04:16;;;;;;;18.05;8.88;;;-0.30;99.90;;;;;;5003837;28;20045;-75
2021/03/21 03:06:49;;;;;;;14.68;8.43;;;-0.30;99.90;;;;;;5004068;28;20171;-74
2021/03/21 03:09:25;;;;;;;14.48;8.50;;;-0.30;99.90;;;;;;5004581;28;20033;-74
2021/03/21 03:11:56;;;;;;;14.68;8.43;;;-0.50;99.90;;;;;;5003468;28;20049;-75
2021/03/21 03:14:33;;;;;;;15.38;8.55;;;-0.40;99.90;;;;;;4992713;28;20464;-77
2021/03/21 03:17:01;;;;;;;16.30;7.85;;;-0.40;99.90;;;;;;4985955;28;20046;-74
2021/03/21 03:19:57;;;;;;;12.98;6.97;;;-0.40;99.90;;;;;;5006298;28;20116;-75
2021/03/21 03:22:32;;;;;;;15.57;7.55;;;-0.60;99.90;;;;;;5004311;28;20409;-74
2021/03/21 03:25:36;;;;;;;15.27;7.65;;;-0.60;99.90;;;;;;5006394;28;20048;-75
2021/03/21 03:28:04;;;;;;;13.88;8.00;;;-0.50;99.90;;;;;;4995421;28;20046;-77
2021/03/21 03:30:50;;;;;;;15.20;8.75;;;-0.50;99.90;;;;;;5006665;28;20033;-74
2021/03/21 03:33:17;;;;;;;14.60;8.20;;;-0.50;99.90;;;;;;5003258;28;20038;-74
2021/03/21 03:35:43;;;;;;;14.75;8.40;;;-0.50;99.90;;;;;;5004474;28;20034;-74
2021/03/21 03:38:09;;;;;;;17.95;8.45;;;-0.60;99.90;;;;;;5002590;28;20033;-75
2021/03/21 03:40:40;;;;;;;14.23;7.72;;;-0.50;99.90;;;;;;5005960;28;20038;-77
2021/03/21 03:43:29;;;;;;;16.63;8.40;;;-0.50;99.90;;;;;;5003100;28;20034;-75
2021/03/21 03:46:15;;;;;;;18.77;9.13;;;-0.50;99.90;;;;;;5004503;28;20364;-74
2021/03/21 03:49:14;;;;;;;12.88;7.43;;;-0.40;99.90;;;;;;5004561;28;20502;-75
2021/03/21 03:52:14;;;;;;;15.90;8.02;;;-0.40;99.90;;;;;;4986433;28;20141;-74
2021/03/21 03:55:00;;;;;;;19.77;9.57;;;-0.50;99.90;;;;;;4978611;28;20038;-74
2021/03/21 03:57:51;;;;;;;13.75;7.70;;;-0.60;99.90;;;;;;5005922;28;20054;-77
2021/03/21 04:00:44;;;;;;;15.75;8.10;;;-0.70;99.90;;;;;;5000547;28;20030;-74
2021/03/21 04:03:51;;;;;;;15.18;8.85;;;-0.70;99.90;;;;;;5009091;28;20079;-75
2021/03/21 04:06:19;;;;;;;17.65;8.70;;;-0.70;99.90;;;;;;4963546;28;20031;-74
2021/03/21 04:09:09;;;;;;;16.10;9.20;;;-0.70;99.90;;;;;;4949314;28;20042;-75
2021/03/21 04:11:55;;;;;;;16.92;8.50;;;-0.70;99.90;;;;;;4993090;28;20081;-74
2021/03/21 04:14:47;;;;;;;18.02;9.18;;;-0.70;99.90;;;;;;5007740;28;20444;-75
2021/03/21 04:17:22;;;;;;;18.02;9.20;;;-0.60;99.90;;;;;;5002639;28;20042;-75
2021/03/21 04:19:54;;;;;;;15.10;8.32;;;-0.70;99.90;;;;;;4996913;28;20145;-77
2021/03/21 04:22:34;;;;;;;14.52;8.50;;;-0.70;99.90;;;;;;4989881;28;20511;-74
2021/03/21 04:25:22;;;;;;;17.02;8.77;;;-0.70;99.90;;;;;;4996734;28;20537;-74
2021/03/21 04:27:59;;;;;;;19.88;8.10;;;-0.70;99.90;;;;;;5009200;28;20100;-74
2021/03/21 04:30:31;;;;;;;11.45;6.53;;;-0.70;99.90;;;;;;5006975;28;20026;-75
2021/03/21 04:32:58;;;;;;;14.27;7.38;;;-0.70;99.90;;;;;;5009257;28;20120;-75
2021/03/21 04:35:34;;;;;;;14.52;8.40;;;-0.70;99.90;;;;;;5009219;28;20133;-74
2021/03/21 04:38:07;;;;;;;13.75;7.90;;;-0.70;99.90;;;;;;5008688;28;20022;-74
2021/03/21 04:40:34;;;;;;;14.88;8.23;;;-0.70;99.90;;;;;;5007501;28;20121;-74
2021/03/21 04:43:06;;;;;;;12.20;7.22;;;-0.80;99.90;;;;;;5008529;28;20036;-74
2021/03/21 04:45:34;;;;;;;;;;;-0.80;99.90;;;;;;5007330;28;20419;-74
2021/03/21 04:48:11;;;;;;;13.52;7.35;;;-0.80;99.90;;;;;;5008697;28;19920;-74
2021/03/21 04:50:37;;;;;;;13.55;7.60;;;-0.80;99.90;;;;;;5007455;28;20069;-74
2021/03/21 04:53:18;;;;;;;13.52;6.53;;;-0.80;99.90;;;;;;5007561;28;20069;-75
2021/03/21 04:55:56;;;;;;;14.85;6.80;;;-0.80;99.90;;;;;;5007889;28;20467;-74
2021/03/21 04:58:43;;;;;;;15.40;7.43;;;-0.80;99.90;;;;;;5008592;28;20029;-74
2021/03/21 05:01:14;;;;;;;13.30;7.40;;;-0.80;99.90;;;;;;5007131;28;20478;-74
2021/03/21 05:03:44;;;;;;;13.65;7.30;;;-0.80;99.90;;;;;;5008301;28;20034;-74
2021/03/21 05:06:39;;;;;;;14.23;8.10;;;-0.80;99.90;;;;;;5007592;28;20127;-74
2021/03/21 05:09:10;;;;;;;16.05;8.10;;;-0.90;99.90;;;;;;5005903;28;20071;-75
2021/03/21 05:11:41;;;;;;;12.73;7.70;;;-0.90;99.90;;;;;;5007482;28;20436;-74
2021/03/21 05:14:29;;;;;;;15.25;8.52;;;-0.90;99.90;;;;;;5006426;28;20037;-74
2021/03/21 05:17:03;;;;;;;15.75;8.18;;;-1.00;99.90;;;;;;5002566;28;20054;-74
2021/03/21 05:19:51;;;;;;;11.23;5.35;;;-1.00;99.90;;;;;;5006223;28;20057;-75
2021/03/21 05:22:24;;;;;;;10.60;5.13;;;-1.00;99.90;;;;;;5006515;28;20492;-74
2021/03/21 05:25:20;;;;;;;13.32;6.70;;;-1.00;99.90;;;;;;5005705;28;20041;-77
2021/03/21 05:28:08;;;;;;;11.73;6.78;;;-1.00;99.90;;;;;;4998000;28;20129;-74
2021/03/21 05:30:36;;;;;;;12.25;6.20;;;-1.10;99.90;;;;;;4991783;28;20041;-74
2021/03/21 05:33:04;;;;;;;11.00;5.35;;;-1.10;99.90;;;;;;5008577;28;20045;-74
2021/03/21 05:35:33;;;;;;;9.70;5.78;;;-1.10;99.90;;;;;;5006164;28;20033;-74
2021/03/21 05:38:08;;;;;;;11.65;6.38;;;-1.10;99.90;;;;;;5008047;28;20046;-77
2021/03/21 05:41:04;;;;;;;11.70;6.00;;;-1.10;99.90;;;;;;5004353;28;20069;-74
2021/03/21 05:44:07;;;;;;;11.85;5.85;;;-1.20;99.90;;;;;;5006502;28;20454;-74
2021/03/21 05:46:52;;;;;;;9.13;5.50;;;-1.10;99.90;;;;;;5000000;28;20455;-74
2021/03/21 05:49:42;;;;;;;13.60;7.68;;;-1.00;99.90;;;;;;5006966;28;20526;-74
2021/03/21 05:52:35;;;;;;;12.20;7.28;;;-1.00;99.90;;;;;;5006850;28;20057;-74
2021/03/21 05:55:04;;;;;;;13.88;6.55;;;-1.00;99.90;;;;;;5006119;28;20077;-74
2021/03/21 05:57:54;;;;;;;11.50;6.68;;;-1.00;99.90;;;;;;5007236;28;20262;-74
2021/03/21 06:00:39;;;;;;;11.70;6.85;;;-1.00;99.90;;;;;;5005546;28;20416;-74
2021/03/21 06:03:16;;;;;;;13.48;6.88;;;-1.00;99.90;;;;;;5005070;28;20034;-74
2021/03/21 06:06:20;;;;;;;10.82;5.82;;;-1.00;99.90;;;;;;5005713;28;20656;-75
2021/03/21 06:08:46;;;;;;;12.98;6.30;;;-1.00;99.90;;;;;;4998555;28;20046;-77
2021/03/21 06:11:33;;;;;;;12.70;5.55;;;-1.00;99.90;;;;;;4987325;28;20034;-75
2021/03/21 06:14:27;;;;;;;10.63;5.65;;;-1.00;99.90;;;;;;4999542;28;20031;-74
2021/03/21 06:17:14;;;;;;;9.77;5.75;;;-1.00;99.90;;;;;;5003143;28;20040;-74
2021/03/21 06:19:51;;;;;;;10.88;5.93;;;-0.90;99.90;;;;;;5000278;28;20049;-74
2021/03/21 06:22:35;;;;;;;10.73;5.13;;;-0.90;99.90;;;;;;5006279;28;20037;-74
2021/03/21 06:25:50;;;;;;;10.10;4.82;;;-0.80;99.90;;;;;;5005035;28;20054;-74
2021/03/21 06:28:40;;;;;;;11.98;6.05;;;-0.80;99.90;;;;;;4944726;28;20066;-74
2021/03/21 06:31:27;;;;;;;12.82;6.07;;;-0.80;99.90;;;;;;4996557;28;20277;-74
2021/03/21 06:34:02;;;;;;;12.50;6.32;;;-0.80;99.90;;;;;;5003363;28;20407;-78
2021/03/21 06:36:44;;;;;;;12.52;5.97;;;-0.80;99.90;;;;;;5002132;28;20044;-75
2021/03/21 06:39:31;;;;;;;10.80;5.15;;;-0.70;99.90;;;;;;5006498;28;20039;-78
2021/03/21 06:42:08;;;;;;;10.73;5.15;;;-0.70;99.90;;;;;;5004499;28;20061;-77
2021/03/21 06:44:46;;;;;;;13.20;5.82;;;-0.60;99.90;;;;;;5004271;28;20037;-74
2021/03/21 06:47:37;;;;;;;10.70;5.57;;;-0.60;99.90;;;;;;5012107;28;20030;-74
2021/03/21 06:50:17;;;;;;;11.23;6.07;;;-0.40;99.90;;;;;;5009568;28;20471;-77
2021/03/21 06:53:12;;;;;;;12.95;6.63;;;-0.20;99.90;;;;;;5002393;28;20037;-75
2021/03/21 06:55:56;;;;;;;12.05;5.38;;;-0.10;99.90;;;;;;5006099;28;20033;-74
2021/03/21 06:58:42;;;;;;;10.05;5.75;;;0.00;99.90;;;;;;5009164;28;20048;-75
2021/03/21 07:01:14;;;;;;;11.88;6.03;;;0.20;99.90;;;;;;5011885;28;20040;-75
2021/03/21 07:04:04;;;;;;;9.97;5.87;;;0.40;99.90;;;;;;5003270;28;20038;-74
2021/03/21 07:06:39;;;;;;;10.18;5.15;;;0.50;99.90;;;;;;5008678;28;20436;-73
2021/03/21 07:09:23;;;;;;;10.75;4.72;;;0.60;99.90;;;;;;5007220;28;20072;-75
2021/03/21 07:12:01;;;;;;;10.10;5.90;;;0.80;99.90;;;;;;4998245;28;20483;-74
2021/03/21 07:14:44;;;;;;;10.65;5.47;;;0.90;99.90;;;;;;5009389;28;20437;-74
2021/03/21 07:17:17;;;;;;;10.73;5.10;;;1.10;99.90;;;;;;4997936;28;20117;-75
2021/03/21 07:20:16;;;;;;;11.32;5.80;;;1.20;99.90;;;;;;5005195;28;20403;-75
2021/03/21 07:23:30;;;;;;;9.63;5.15;;;1.40;99.90;;;;;;4996058;28;20034;-74
2021/03/21 07:26:20;;;;;;;8.60;4.60;;;1.60;99.90;;;;;;4961487;28;20568;-75
2021/03/21 07:29:26;;;;;;;10.23;4.57;;;1.70;99.90;;;;;;4977733;28;20045;-75
2021/03/21 07:32:13;;;;;;;8.65;4.72;;;1.90;99.90;;;;;;4982954;28;20547;-74
2021/03/21 07:35:13;;;;;;;9.35;5.05;;;2.00;99.90;;;;;;5001033;28;20061;-74
2021/03/21 07:37:53;;;;;;;9.52;4.75;;;2.20;99.90;;;;;;5006581;28;20057;-77
2021/03/21 07:40:42;;;;;;;8.77;4.85;;;2.40;99.90;;;;;;5018369;28;20049;-74
2021/03/21 07:43:45;;;;;;;8.75;4.88;;;2.50;99.90;;;;;;5009062;28;20053;-74
2021/03/21 07:46:19;;;;;;;;;;;2.60;99.90;;;;;;5005709;28;20551;-75
2021/03/21 07:49:20;;;;;;;9.27;4.75;;;2.40;99.90;;;;;;5013784;28;19967;-74
2021/03/21 07:51:46;;;;;;;7.75;3.72;;;2.40;99.90;;;;;;4993454;28;20053;-74
2021/03/21 07:54:31;;;;;;;9.60;4.72;;;2.30;99.90;;;;;;5014508;28;20037;-75
2021/03/21 07:57:18;;;;;;;9.68;4.88;;;2.50;99.90;;;;;;5012934;28;20034;-75
2021/03/21 07:59:46;;;;;;;7.97;4.05;;;2.70;99.90;;;;;;5004667;28;20387;-76
2021/03/21 08:02:21;;;;;;;9.27;4.65;;;2.80;99.90;;;;;;5013630;28;20360;-74
2021/03/21 08:04:48;;;;;;;7.70;4.03;;;2.90;99.90;;;;;;5016339;28;20266;-74
2021/03/21 08:07:36;;;;;;;9.35;4.43;;;3.10;99.90;;;;;;5011943;28;20034;-74
2021/03/21 08:10:28;;;;;;;8.75;4.30;;;3.00;99.90;;;;;;5008273;28;20383;-74
2021/03/21 08:13:02;;;;;;;7.60;4.03;;;3.20;99.90;;;;;;4993794;28;20037;-74
2021/03/21 08:15:32;;;;;;;8.65;4.32;;;3.00;99.90;;;;;;5006731;28;20195;-74
2021/03/21 08:18:04;;;;;;;7.03;3.85;;;2.80;99.80;;;;;;5007329;28;20048;-75
2021/03/21 08:20:34;;;;;;;6.95;3.70;;;3.00;99.90;;;;;;5010688;28;20022;-74
2021/03/21 08:23:19;;;;;;;8.20;4.63;;;3.20;99.30;;;;;;5000823;28;20223;-74
2021/03/21 08:25:45;;;;;;;6.20;3.33;;;3.30;98.60;;;;;;5011490;28;20030;-76
2021/03/21 08:28:16;;;;;;;7.90;3.78;;;3.60;98.10;;;;;;5005730;28;20109;-74
2021/03/21 08:30:47;;;;;;;7.15;3.78;;;3.30;96.20;;;;;;5006021;28;20681;-74
2021/03/21 08:33:42;;;;;;;8.32;4.22;;;2.80;97.00;;;;;;5007840;28;20484;-74
2021/03/21 08:36:14;;;;;;;8.90;4.57;;;3.10;97.60;;;;;;5014169;28;20053;-74
2021/03/21 08:38:50;;;;;;;9.10;4.30;;;3.50;97.60;;;;;;5010271;28;20507;-74
2021/03/21 08:41:16;;;;;;;6.40;3.65;;;3.40;96.00;;;;;;5002622;28;20726;-74
2021/03/21 08:43:42;;;;;;;7.82;3.78;;;3.30;96.40;;;;;;5012364;28;20042;-74
2021/03/21 08:46:21;;;;;;;8.45;4.50;;;3.50;97.40;;;;;;4993906;28;20032;-73
2021/03/21 08:49:19;;;;;;;9.05;5.00;;;3.90;97.40;;;;;;5003353;28;20038;-74
2021/03/21 08:51:47;;;;;;;8.55;5.30;;;4.40;96.20;;;;;;5003978;28;20117;-75
2021/03/21 08:54:28;;;;;;;9.85;4.65;;;4.70;94.80;;;;;;4996503;28;20510;-74
2021/03/21 08:57:12;;;;;;;8.45;4.72;;;4.60;93.00;;;;;;5007554;28;20726;-74
2021/03/21 08:59:43;;;;;;;8.38;4.05;;;4.50;93.80;;;;;;5008451;28;20044;-73
2021/03/21 09:02:18;;;;;;;7.82;4.20;;;4.40;93.70;;;;;;5008686;28;20029;-74
2021/03/21 09:04:59;;;;;;;6.65;3.90;;;4.70;92.70;;;;;;5014528;28;20042;-73
2021/03/21 09:07:29;;;;;;;9.05;4.53;;;4.50;92.10;;;;;;5002024;28;20117;-74
2021/03/21 09:10:25;;;;;;;6.82;3.67;;;4.80;93.10;;;;;;5006950;28;20038;-76
2021/03/21 09:12:55;;;;;;;7.05;3.55;;;4.30;91.10;;;;;;5011829;28;20018;-74
2021/03/21 09:15:32;;;;;;;7.03;3.60;;;4.40;91.30;;;;;;5007345;28;20532;-74
2021/03/21 09:18:21;;;;;;;8.18;3.75;;;4.20;91.90;;;;;;5026021;28;20042;-74
2021/03/21 09:21:00;;;;;;;7.20;3.38;;;4.20;91.30;;;;;;5011910;28;20101;-73
2021/03/21 09:23:37;;;;;;;6.43;3.85;;;4.40;92.00;;;;;;5011471;28;20033;-74
2021/03/21 09:26:26;;;;;;;6.60;3.92;;;4.90;91.80;;;;;;5003866;28;20029;-76
2021/03/21 09:28:56;;;;;;;6.78;3.80;;;5.40;91.70;;;;;;5006196;28;20037;-74
2021/03/21 09:31:23;;;;;;;10.05;3.88;;;5.60;90.60;;;;;;5009374;28;20026;-74
2021/03/21 09:34:05;;;;;;;8.27;4.00;;;5.40;87.90;;;;;;5010343;28;20041;-74
2021/03/21 09:36:43;;;;;;;8.15;4.55;;;5.50;88.10;;;;;;5014042;28;20118;-74
2021/03/21 09:39:33;;;;;;;7.57;3.90;;;5.30;86.90;;;;;;5005962;28;20554;-74
2021/03/21 09:42:00;;;;;;;16.23;4.10;;;4.90;86.20;;;;;;5011572;28;20064;-73
2021/03/21 09:44:28;;;;;;;8.70;3.95;;;4.60;88.20;;;;;;5009148;28;20044;-76
2021/03/21 09:47:03;;;;;;;7.35;3.72;;;4.60;87.80;;;;;;5004547;28;20030;-74
2021/03/21 09:50:10;;;;;;;6.97;3.95;;;4.40;88.40;;;;;;5013637;28;20576;-73
2021/03/21 09:52:54;;;;;;;12.77;3.80;;;4.70;89.30;;;;;;5015109;28;20045;-73
2021/03/21 09:55:49;;;;;;;9.07;4.20;;;4.60;90.30;;;;;;5009937;28;20124;-73
2021/03/21 09:58:17;;;;;;;8.65;4.30;;;4.50;88.50;;;;;;5004695;28;20138;-76
2021/03/21 10:00:50;;;;;;;7.35;3.63;;;4.50;88.20;;;;;;5005155;28;20037;-74
2021/03/21 10:03:34;;;;;;;8.80;3.97;;;4.50;90.40;;;;;;5014922;28;20033;-74
2021/03/21 10:06:19;;;;;;;6.93;3.65;;;4.60;91.60;;;;;;5014999;28;20018;-76
2021/03/21 10:09:08;;;;;;;12.85;4.65;;;4.60;90.10;;;;;;5024298;28;20029;-74
2021/03/21 10:11:37;;;;;;;9.27;3.92;;;5.10;90.80;;;;;;4995007;28;20030;-74
2021/03/21 10:14:22;;;;;;;7.93;3.88;;;5.60;90.60;;;;;;5010002;28;20034;-74
2021/03/21 10:16:56;;;;;;;9.32;4.25;;;6.10;88.30;;;;;;5008702;28;20057;-74
2021/03/21 10:19:46;;;;;;;9.77;4.07;;;6.00;86.00;;;;;;5007050;28;20058;-74
2021/03/21 10:22:21;;;;;;;7.97;4.18;;;6.50;86.50;;;;;;5006152;28;20033;-74
2021/03/21 10:24:54;;;;;;;8.45;4.00;;;6.20;86.70;;;;;;5013394;28;20042;-74
2021/03/21 10:27:24;;;;;;;7.78;4.35;;;6.50;88.60;;;;;;5009555;28;20025;-74
2021/03/21 10:30:08;;;;;;;12.68;5.30;;;6.50;85.40;;;;;;5013420;28;20042;-74
2021/03/21 10:32:36;;;;;;;8.77;4.55;;;6.70;84.40;;;;;;5005829;28;20414;-74
2021/03/21 10:35:03;;;;;;;9.52;5.35;;;6.50;84.90;;;;;;5010279;28;20073;-74
2021/03/21 10:37:41;;;;;;;10.05;4.20;;;6.90;85.90;;;;;;5012848;28;20034;-74
2021/03/21 10:40:25;;;;;;;8.63;4.57;;;7.30;84.90;;;;;;5010071;28;20041;-74
2021/03/21 10:43:10;;;;;;;7.03;3.40;;;7.10;84.30;;;;;;5007632;28;20554;-73
2021/03/21 10:45:36;;;;;;;10.88;6.93;;;7.50;87.20;;;;;;5007663;28;20065;-73
2021/03/21 10:48:08;;;;;;;8.50;4.22;;;7.50;84.20;;;;;;5010280;28;20469;-74
2021/03/21 10:50:43;;;;;;;9.88;6.07;;;7.20;80.10;;;;;;5004363;28;20079;-74
2021/03/21 10:53:17;;;;;;;8.90;4.32;;;7.40;81.50;;;;;;5002683;28;20116;-74
2021/03/21 10:56:04;;;;;;;7.75;4.32;;;7.70;82.20;;;;;;5013118;28;20140;-73
2021/03/21 10:58:35;;;;;;;9.30;3.90;;;7.30;80.10;;;;;;5006054;28;20050;-74
2021/03/21 11:01:16;;;;;;;6.35;3.55;;;7.20;81.20;;;;;;5007214;28;20038;-73
2021/03/21 11:03:44;;;;;;;6.97;3.58;;;7.10;81.00;;;;;;5006003;28;20093;-74
2021/03/21 11:06:15;;;;;;;7.78;3.22;;;7.10;79.20;;;;;;5011451;28;20033;-74
2021/03/21 11:08:40;;;;;;;7.50;4.45;;;6.90;79.80;;;;;;5009551;28;20030;-74
2021/03/21 11:11:17;;;;;;;7.60;4.30;;;7.00;81.20;;;;;;5011857;28;20497;-73
2021/03/21 11:13:44;;;;;;;7.63;3.97;;;7.50;82.20;;;;;;5009748;28;20045;-74
2021/03/21 11:16:21;;;;;;;8.05;4.13;;;7.50;80.10;;;;;;5013284;28;20066;-73
2021/03/21 11:18:53;;;;;;;8.85;4.72;;;7.60;81.60;;;;;;5016219;28;20054;-74
2021/03/21 11:21:22;;;;;;;6.45;4.05;;;7.60;77.90;;;;;;4996281;28;20045;-74
2021/03/21 11:23:53;;;;;;;7.75;4.10;;;7.00;79.40;;;;;;5015284;28;20633;-74
2021/03/21 11:26:25;;;;;;;8.10;3.88;;;6.80;80.40;;;;;;5010773;28;20107;-74
2021/03/21 11:28:53;;;;;;;7.47;3.50;;;7.10;80.50;;;;;;5008109;28;20497;-73
2021/03/21 11:31:32;;;;;;;6.68;3.50;;;7.40;82.00;;;;;;5007995;28;20498;-73
2021/03/21 11:33:58;;;;;;;9.18;2.72;;;7.70;80.10;;;;;;5011406;28;20383;-73
2021/03/21 11:36:24;;;;;;;5.75;2.72;;;7.80;77.50;;;;;;5016165;28;20042;-74
2021/03/21 11:38:51;;;;;;;5.18;2.63;;;7.60;75.30;;;;;;5016520;28;20360;-73
2021/03/21 11:41:23;;;;;;;6.40;2.65;;;7.80;79.70;;;;;;5021268;28;20037;-74
2021/03/21 11:43:49;;;;;;;5.82;2.47;;;8.20;75.20;;;;;;5008537;28;20062;-73
2021/03/21 11:46:28;;;;;;;4.78;2.58;;;8.30;77.10;;;;;;5012364;28;20521;-74
2021/03/21 11:48:57;;;;;;;4.38;2.03;;;8.30;73.80;;;;;;5017706;28;20030;-73
2021/03/21 11:51:23;;;;;;;5.45;1.95;;;8.20;73.20;;;;;;5011515;28;20029;-75
2021/03/21 11:53:49;;;;;;;5.82;2.33;;;8.30;73.50;;;;;;5023683;28;20022;-74
2021/03/21 11:56:20;;;;;;;5.95;2.25;;;8.40;71.50;;;;;;5009728;28;20287;-74
2021/03/21 11:59:02;;;;;;;4.00;1.60;;;8.50;72.20;;;;;;5010608;28;20034;-74
2021/03/21 12:01:43;;;;;;;4.97;2.17;;;8.80;72.00;;;;;;5007745;28;20945;-74
2021/03/21 12:04:22;;;;;;;5.88;2.22;;;8.80;68.90;;;;;;5022353;28;20124;-74
2021/03/21 12:06:49;;;;;;;7.03;1.83;;;8.60;67.80;;;;;;5019402;28;20033;-74
2021/03/21 12:09:33;;;;;;;5.18;2.00;;;8.80;70.80;;;;;;5013357;28;20026;-74
2021/03/21 12:12:02;;;;;;;6.22;2.53;;;9.40;70.30;;;;;;5013538;28;20026;-73
2021/03/21 12:14:31;;;;;;;5.28;1.63;;;9.60;70.60;;;;;;5012135;28;20371;-73
2021/03/21 12:16:58;;;;;;;5.80;1.77;;;9.70;67.10;;;;;;5010846;28;20043;-73
2021/03/21 12:19:34;;;;;;;2.65;1.27;;;9.80;66.80;;;;;;5013888;28;20049;-74
2021/03/21 12:22:34;;;;;;;4.00;1.80;;;9.90;65.80;;;;;;5010864;28;20033;-73
2021/03/21 12:25:11;;;;;;;4.60;1.70;;;9.90;65.80;;;;;;5010616;28;20044;-73
2021/03/21 12:27:38;;;;;;;5.43;2.08;;;10.20;67.20;;;;;;5024555;28;20117;-73
2021/03/21 12:30:30;;;;;;;5.32;1.50;;;10.20;66.30;;;;;;5014229;28;20406;-73
2021/03/21 12:33:26;;;;;;;4.70;1.50;;;10.00;63.70;;;;;;5006300;28;20056;-73
2021/03/21 12:35:54;;;;;;;3.78;1.35;;;9.20;61.70;;;;;;5018304;28;20486;-73
2021/03/21 12:38:48;;;;;;;5.78;1.67;;;9.20;65.10;;;;;;5019498;28;20075;-73
2021/03/21 12:41:29;;;;;;;3.38;1.40;;;9.60;65.70;;;;;;5014251;28;20061;-73
2021/03/21 12:44:13;;;;;;;3.55;1.30;;;9.10;63.70;;;;;;5015001;28;20037;-74
2021/03/21 12:47:04;;;;;;;2.75;1.27;;;9.20;62.70;;;;;;5018387;28;20022;-74
2021/03/21 12:49:40;;;;;;;4.47;1.40;;;9.60;66.00;;;;;;5003035;28;20076;-73
2021/03/21 12:52:10;;;;;;;4.70;1.33;;;9.80;66.30;;;;;;5012926;28;20033;-73
2021/03/21 12:54:37;;;;;;;3.75;1.50;;;10.00;64.80;;;;;;5019846;28;20045;-73
2021/03/21 12:57:04;;;;;;;4.18;1.33;;;10.00;64.60;;;;;;5007694;28;20108;-72
2021/03/21 12:59:29;;;;;;;5.28;1.50;;;10.20;65.70;;;;;;5013728;28;20495;-72
2021/03/21 13:01:56;;;;;;;3.60;1.58;;;10.30;63.00;;;;;;5021071;28;20037;-73
2021/03/21 13:04:22;;;;;;;3.67;1.00;;;10.20;60.10;;;;;;4999096;28;20133;-73
2021/03/21 13:06:47;;;;;;;4.75;1.48;;;10.30;62.60;;;;;;5011605;28;20108;-73
2021/03/21 13:09:13;;;;;;;3.30;1.08;;;10.10;62.60;;;;;;5013607;28;20083;-73
2021/03/21 13:11:39;;;;;;;4.50;1.13;;;10.20;62.60;;;;;;5024451;28;20558;-73
2021/03/21 13:14:05;;;;;;;3.92;1.20;;;10.30;63.20;;;;;;5016335;28;20046;-73
2021/03/21 13:16:32;;;;;;;4.70;1.45;;;10.40;63.10;;;;;;5006802;28;20037;-73
2021/03/21 13:18:58;;;;;;;6.70;1.20;;;10.40;60.50;;;;;;5011384;28;20084;-73
2021/03/21 13:21:24;;;;;;;5.03;1.40;;;10.20;62.60;;;;;;5010194;28;20528;-73
2021/03/21 13:23:50;;;;;;;6.40;2.03;;;10.30;65.00;;;;;;5013197;28;20482;-74
2021/03/21 13:26:16;;;;;;;16.50;2.63;;;10.30;63.40;;;;;;5020231;28;20128;-74
2021/03/21 13:28:42;;;;;;;3.97;1.50;;;10.50;63.90;;;;;;5014428;28;20045;-73
2021/03/21 13:31:08;;;;;;;4.35;0.93;;;10.60;61.60;;;;;;5016324;28;20080;-73
2021/03/21 13:33:35;;;;;;;6.32;1.27;;;10.40;62.50;;;;;;5015455;28;20037;-73
2021/03/21 13:36:01;;;;;;;5.30;1.33;;;10.40;62.00;;;;;;5023275;28;20661;-73